createdAt,value
2024-02-16T00:02:04.534Z,11.13
2024-02-16T00:04:32.402Z,11.05
2024-02-16T00:06:59.464Z,11.13
2024-02-16T00:09:26.561Z,11.16
2024-02-16T00:11:54.234Z,11.30
2024-02-16T00:14:21.407Z,11.24
2024-02-16T00:16:49.051Z,11.38
2024-02-16T00:19:16.663Z,11.33
2024-02-16T00:21:43.856Z,11.38
2024-02-16T00:24:11.420Z,11.38
2024-02-16T00:26:41.176Z,11.31
2024-02-16T00:29:08.415Z,11.27
2024-02-16T00:31:35.414Z,11.38
2024-02-16T00:34:02.549Z,11.32
2024-02-16T00:36:32.150Z,11.32
2024-02-16T00:38:59.999Z,11.26
2024-02-16T00:41:27.461Z,11.32
2024-02-16T00:43:54.348Z,11.43
2024-02-16T00:46:21.356Z,11.26
2024-02-16T00:48:48.799Z,11.26
2024-02-16T00:51:15.813Z,11.25
2024-02-16T00:53:42.968Z,11.17
2024-02-16T00:56:10.153Z,11.20
2024-02-16T00:58:37.866Z,11.19
2024-02-16T01:01:05.810Z,11.16
2024-02-16T01:03:33.028Z,11.16
2024-02-16T01:06:00.069Z,11.21
2024-02-16T01:08:28.901Z,11.23
2024-02-16T01:10:58.235Z,11.22
2024-02-16T01:13:25.174Z,11.13
2024-02-16T01:15:52.221Z,11.25
2024-02-16T01:18:19.344Z,11.25
2024-02-16T01:20:46.641Z,11.19
2024-02-16T01:23:13.745Z,11.25
2024-02-16T01:25:40.604Z,11.28
2024-02-16T01:28:07.600Z,11.25
2024-02-16T01:30:34.941Z,11.22
2024-02-16T01:33:02.149Z,11.25
2024-02-16T01:35:29.189Z,11.18
2024-02-16T01:37:56.001Z,11.12
2024-02-16T01:40:23.402Z,11.16
2024-02-16T01:42:50.494Z,11.04
2024-02-16T01:45:17.875Z,11.10
2024-02-16T01:47:45.609Z,10.94
2024-02-16T01:50:12.818Z,10.96
2024-02-16T01:52:39.840Z,10.82
2024-02-16T01:55:10.432Z,10.88
2024-02-16T01:57:48.133Z,10.98
2024-02-16T02:00:21.989Z,10.97
2024-02-16T02:02:49.731Z,10.96
2024-02-16T02:05:17.157Z,10.92
2024-02-16T02:07:44.620Z,10.90
2024-02-16T02:10:14.708Z,10.91
2024-02-16T02:12:42.283Z,10.91
2024-02-16T02:15:10.349Z,10.94
2024-02-16T02:17:37.492Z,10.93
2024-02-16T02:20:13.394Z,10.87
2024-02-16T02:22:40.544Z,10.95
2024-02-16T02:25:08.087Z,10.81
2024-02-16T02:27:35.024Z,10.82
2024-02-16T02:30:02.371Z,10.91
2024-02-16T02:32:29.951Z,10.92
2024-02-16T02:34:57.173Z,10.91
2024-02-16T02:37:24.416Z,10.92
2024-02-16T02:39:51.348Z,10.93
2024-02-16T02:42:18.496Z,10.92
2024-02-16T02:44:51.414Z,10.89
2024-02-16T02:47:18.795Z,10.84
2024-02-16T02:49:45.956Z,10.87
2024-02-16T02:52:12.872Z,10.90
2024-02-16T02:54:40.043Z,10.81
2024-02-16T02:57:07.198Z,10.84
2024-02-16T02:59:34.223Z,10.76
2024-02-16T03:02:01.790Z,10.75
2024-02-16T03:04:29.061Z,10.70
2024-02-16T03:06:56.629Z,10.71
2024-02-16T03:09:24.267Z,10.76
2024-02-16T03:11:51.417Z,10.87
2024-02-16T03:14:21.705Z,10.89
2024-02-16T03:16:48.665Z,10.94
2024-02-16T03:19:16.037Z,10.91
2024-02-16T03:21:43.606Z,10.91
2024-02-16T03:24:10.645Z,10.97
2024-02-16T03:26:37.672Z,10.85
2024-02-16T03:29:05.284Z,10.79
2024-02-16T03:31:32.318Z,10.74
2024-02-16T03:33:59.785Z,10.69
2024-02-16T03:36:26.856Z,10.61
2024-02-16T03:38:53.966Z,10.58
2024-02-16T03:41:22.421Z,10.61
2024-02-16T03:43:49.350Z,10.59
2024-02-16T03:46:16.569Z,10.48
2024-02-16T03:48:43.887Z,10.61
2024-02-16T03:51:11.136Z,10.59
2024-02-16T03:53:38.068Z,10.49
2024-02-16T03:56:07.163Z,10.41
2024-02-16T03:58:34.419Z,10.40
2024-02-16T04:01:01.398Z,10.30
2024-02-16T04:03:28.659Z,10.27
2024-02-16T04:05:56.122Z,10.35
2024-02-16T04:08:23.186Z,10.33
2024-02-16T04:10:50.198Z,10.27
2024-02-16T04:13:19.582Z,10.23
2024-02-16T04:15:46.710Z,10.27
2024-02-16T04:18:13.911Z,10.17
2024-02-16T04:20:42.560Z,10.14
2024-02-16T04:23:09.556Z,10.12
2024-02-16T04:25:36.964Z,10.12
2024-02-16T04:28:07.408Z,10.10
2024-02-16T04:30:34.413Z,9.89
2024-02-16T04:33:01.621Z,9.98
2024-02-16T04:35:28.842Z,9.95
2024-02-16T04:37:55.794Z,9.91
2024-02-16T04:40:22.660Z,9.88
2024-02-16T04:42:49.605Z,9.79
2024-02-16T04:45:16.485Z,9.77
2024-02-16T04:47:43.381Z,9.63
2024-02-16T04:50:13.723Z,9.65
2024-02-16T04:52:42.228Z,9.69
2024-02-16T04:55:09.395Z,9.69
2024-02-16T04:57:36.708Z,9.59
2024-02-16T05:00:05.161Z,9.54
2024-02-16T05:02:32.658Z,9.60
2024-02-16T05:05:02.102Z,9.59
2024-02-16T05:07:37.859Z,9.59
2024-02-16T05:10:15.390Z,9.53
2024-02-16T05:12:42.870Z,9.73
2024-02-16T05:15:10.817Z,9.74
2024-02-16T05:17:38.261Z,9.76
2024-02-16T05:20:11.372Z,9.70
2024-02-16T05:22:38.491Z,9.56
2024-02-16T05:25:06.201Z,9.65
2024-02-16T05:27:33.349Z,9.62
2024-02-16T05:30:00.512Z,9.63
2024-02-16T05:32:27.967Z,9.68
2024-02-16T05:34:56.174Z,9.61
2024-02-16T05:37:23.582Z,9.53
2024-02-16T05:40:08.924Z,9.52
2024-02-16T05:42:37.182Z,9.55
2024-02-16T05:45:04.734Z,9.53
2024-02-16T05:47:31.761Z,9.45
2024-02-16T05:50:00.371Z,9.52
2024-02-16T05:52:27.991Z,9.45
2024-02-16T05:54:55.303Z,9.56
2024-02-16T05:57:25.974Z,9.38
2024-02-16T05:59:54.139Z,9.35
2024-02-16T06:02:21.779Z,9.34
2024-02-16T06:04:48.579Z,9.30
2024-02-16T06:07:18.222Z,9.36
2024-02-16T06:09:45.246Z,9.42
2024-02-16T06:12:14.523Z,9.40
2024-02-16T06:14:41.497Z,9.37
2024-02-16T06:17:09.601Z,9.41
2024-02-16T06:19:37.118Z,9.31
2024-02-16T06:22:07.232Z,9.49
2024-02-16T06:24:34.357Z,9.55
2024-02-16T06:27:01.513Z,9.66
2024-02-16T06:29:28.471Z,9.68
2024-02-16T06:31:55.481Z,9.64
2024-02-16T06:34:22.929Z,9.72
2024-02-16T06:36:50.354Z,9.75
2024-02-16T06:39:18.541Z,9.76
2024-02-16T06:41:46.845Z,9.84
2024-02-16T06:44:14.663Z,9.87
2024-02-16T06:46:42.243Z,9.87
2024-02-16T06:49:09.696Z,9.95
2024-02-16T06:51:38.822Z,9.97
2024-02-16T06:54:06.412Z,10.05
2024-02-16T06:56:33.651Z,9.99
2024-02-16T06:59:00.955Z,9.95
2024-02-16T07:01:29.105Z,9.94
2024-02-16T07:03:56.336Z,10.00
2024-02-16T07:06:23.473Z,9.88
2024-02-16T07:08:50.556Z,10.00
2024-02-16T07:11:18.147Z,10.04
2024-02-16T07:13:45.063Z,10.04
2024-02-16T07:16:12.065Z,10.02
2024-02-16T07:18:39.310Z,10.00
2024-02-16T07:21:06.575Z,10.03
2024-02-16T07:23:36.599Z,10.08
2024-02-16T07:26:07.185Z,10.21
2024-02-16T07:28:34.774Z,10.18
2024-02-16T07:31:01.774Z,10.19
2024-02-16T07:33:30.623Z,10.16
2024-02-16T07:35:58.098Z,10.19
2024-02-16T07:38:25.123Z,10.13
2024-02-16T07:40:52.270Z,10.12
2024-02-16T07:43:20.192Z,10.20
2024-02-16T07:45:47.858Z,10.35
2024-02-16T07:48:15.222Z,10.29
2024-02-16T07:50:42.694Z,10.31
2024-02-16T07:53:15.549Z,10.25
2024-02-16T07:55:45.805Z,10.32
2024-02-16T07:58:14.005Z,10.32
2024-02-16T08:00:41.098Z,10.20
2024-02-16T08:03:08.339Z,10.26
2024-02-16T08:05:35.272Z,10.33
2024-02-16T08:08:02.314Z,10.37
2024-02-16T08:10:29.299Z,10.45
2024-02-16T08:12:56.168Z,10.46
2024-02-16T08:15:31.117Z,10.53
2024-02-16T08:18:04.633Z,10.57
2024-02-16T08:20:36.035Z,10.64
2024-02-16T08:23:03.025Z,10.59
2024-02-16T08:25:31.776Z,10.64
2024-02-16T08:27:59.056Z,10.66
2024-02-16T08:30:26.989Z,10.62
2024-02-16T08:32:54.438Z,10.75
2024-02-16T08:35:21.927Z,10.80
2024-02-16T08:37:52.046Z,10.75
2024-02-16T08:40:18.995Z,10.85
2024-02-16T08:42:46.462Z,10.93
2024-02-16T08:45:14.161Z,10.92
2024-02-16T08:47:42.247Z,10.90
2024-02-16T08:50:10.361Z,10.96
2024-02-16T08:52:40.648Z,10.96
2024-02-16T08:55:07.995Z,10.91
2024-02-16T08:57:35.451Z,10.95
2024-02-16T09:00:02.704Z,10.97
2024-02-16T09:02:29.909Z,10.94
2024-02-16T09:04:57.457Z,11.00
2024-02-16T09:07:25.891Z,11.04
2024-02-16T09:09:53.268Z,11.10
2024-02-16T09:12:27.197Z,11.19
2024-02-16T09:14:54.223Z,11.21
2024-02-16T09:17:21.969Z,11.29
2024-02-16T09:19:52.554Z,11.23
2024-02-16T09:22:19.589Z,11.25
2024-02-16T09:24:48.493Z,11.24
2024-02-16T09:27:18.415Z,11.27
2024-02-16T09:29:49.123Z,11.31
2024-02-16T09:32:16.899Z,11.30
2024-02-16T09:34:44.572Z,11.30
2024-02-16T09:37:16.213Z,11.41
2024-02-16T09:39:46.795Z,11.46
2024-02-16T09:42:20.696Z,11.50
2024-02-16T09:44:54.410Z,11.53
2024-02-16T09:47:25.305Z,11.71
2024-02-16T09:49:58.994Z,11.79
2024-02-16T09:52:26.418Z,11.97
2024-02-16T09:54:54.324Z,12.10
2024-02-16T09:57:25.534Z,12.14
2024-02-16T09:59:53.034Z,12.37
2024-02-16T10:02:21.077Z,12.46
2024-02-16T10:04:58.269Z,12.60
2024-02-16T10:07:38.179Z,12.83
2024-02-16T10:10:06.120Z,13.12
2024-02-16T10:12:33.614Z,13.31
2024-02-16T10:15:01.869Z,13.47
2024-02-16T10:17:29.698Z,13.41
2024-02-16T10:20:01.268Z,13.45
2024-02-16T10:22:29.075Z,13.47
2024-02-16T10:24:56.131Z,13.41
2024-02-16T10:27:23.583Z,13.44
2024-02-16T10:29:55.579Z,13.45
2024-02-16T10:32:29.361Z,13.50
2024-02-16T10:34:57.781Z,13.54
2024-02-16T10:37:27.738Z,13.50
2024-02-16T10:39:58.034Z,13.45
2024-02-16T10:42:28.707Z,13.50
2024-02-16T10:44:57.359Z,13.50
2024-02-16T10:47:27.714Z,13.41
2024-02-16T10:49:55.173Z,13.54
2024-02-16T10:52:24.994Z,13.54
2024-02-16T10:54:58.066Z,13.59
2024-02-16T10:57:29.040Z,13.65
2024-02-16T11:00:00.392Z,13.71
2024-02-16T11:02:33.068Z,13.71
2024-02-16T11:05:02.013Z,13.76
2024-02-16T11:07:30.143Z,13.84
2024-02-16T11:10:04.268Z,13.87
2024-02-16T11:12:36.187Z,13.88
2024-02-16T11:15:03.321Z,13.99
2024-02-16T11:17:30.681Z,14.02
2024-02-16T11:20:04.265Z,14.11
2024-02-16T11:22:32.108Z,14.13
2024-02-16T11:25:04.510Z,14.06
2024-02-16T11:27:34.337Z,14.14
2024-02-16T11:30:01.995Z,14.19
2024-02-16T11:32:29.325Z,14.26
2024-02-16T11:34:56.305Z,14.29
2024-02-16T11:37:23.394Z,14.33
2024-02-16T11:40:00.054Z,14.34
2024-02-16T11:42:29.174Z,14.40
2024-02-16T11:44:57.994Z,14.36
2024-02-16T11:47:28.778Z,14.43
2024-02-16T11:50:20.347Z,14.53
2024-02-16T11:52:51.954Z,14.82
2024-02-16T11:58:07.614Z,15.41
2024-02-16T12:00:35.342Z,15.50
2024-02-16T12:03:10.075Z,15.54
2024-02-16T12:05:37.747Z,15.70
2024-02-16T12:08:12.650Z,15.73
2024-02-16T12:10:41.071Z,15.82
2024-02-16T12:13:08.834Z,15.90
2024-02-16T12:15:36.562Z,15.93
2024-02-16T12:18:04.012Z,15.94
2024-02-16T12:20:33.225Z,15.91
2024-02-16T12:23:15.804Z,15.94
2024-02-16T12:25:47.577Z,15.94
2024-02-16T12:28:15.982Z,15.83
2024-02-16T12:30:43.236Z,15.82
2024-02-16T12:33:16.132Z,15.87
2024-02-16T12:35:52.541Z,15.79
2024-02-16T12:38:23.792Z,15.85
2024-02-16T12:40:51.121Z,15.91
2024-02-16T12:43:20.081Z,15.89
2024-02-16T12:45:47.424Z,15.95
2024-02-16T12:48:19.173Z,15.82
2024-02-16T12:50:47.572Z,15.78
2024-02-16T12:53:17.381Z,15.83
2024-02-16T12:55:45.526Z,15.75
2024-02-16T12:58:14.725Z,15.75
2024-02-16T13:00:42.624Z,15.61
2024-02-16T13:03:10.161Z,15.55
2024-02-16T13:05:57.752Z,15.56
2024-02-16T13:08:34.568Z,15.55
2024-02-16T13:11:01.592Z,15.58
2024-02-16T13:13:28.616Z,15.56
2024-02-16T13:16:01.036Z,15.54
2024-02-16T13:18:30.895Z,15.56
2024-02-16T13:21:00.757Z,15.48
2024-02-16T13:23:30.300Z,15.52
2024-02-16T13:25:57.370Z,15.51
2024-02-16T13:28:24.367Z,15.54
2024-02-16T13:30:51.577Z,15.57
2024-02-16T13:33:22.390Z,15.47
2024-02-16T13:35:49.859Z,15.54
2024-02-16T13:38:17.391Z,15.58
2024-02-16T13:40:44.567Z,15.60
2024-02-16T13:43:11.874Z,15.65
2024-02-16T13:45:53.525Z,15.65
2024-02-16T13:48:21.761Z,15.59
2024-02-16T13:50:52.573Z,15.48
2024-02-16T13:53:24.396Z,15.51
2024-02-16T13:55:51.818Z,15.43
2024-02-16T13:58:18.951Z,15.48
2024-02-16T14:00:50.876Z,15.52
2024-02-16T14:03:18.755Z,15.54
2024-02-16T14:05:50.014Z,15.56
2024-02-16T14:08:19.038Z,15.60
2024-02-16T14:10:46.015Z,15.60
2024-02-16T14:13:12.973Z,15.67
2024-02-16T14:15:40.053Z,15.66
2024-02-16T14:18:17.319Z,15.70
2024-02-16T14:20:49.113Z,15.70
2024-02-16T14:23:16.104Z,15.65
2024-02-16T14:25:43.250Z,15.64
2024-02-16T14:28:10.125Z,15.64
2024-02-16T14:30:41.621Z,15.61
2024-02-16T14:33:09.349Z,15.72
2024-02-16T14:35:41.219Z,15.68
2024-02-16T14:38:08.527Z,15.76
2024-02-16T14:40:44.571Z,15.67
2024-02-16T14:43:14.361Z,15.64
2024-02-16T14:45:41.700Z,15.70
2024-02-16T14:48:13.328Z,15.70
2024-02-16T14:50:42.715Z,15.73
2024-02-16T14:53:10.317Z,15.74
2024-02-16T14:55:37.782Z,15.79
2024-02-16T14:58:05.441Z,15.80
2024-02-16T15:00:32.301Z,15.82
2024-02-16T15:02:59.800Z,15.80
2024-02-16T15:05:26.876Z,15.71
2024-02-16T15:07:54.039Z,15.69
2024-02-16T15:10:23.818Z,15.75
2024-02-16T15:12:50.813Z,15.70
2024-02-16T15:15:17.837Z,15.67
2024-02-16T15:17:44.827Z,15.68
2024-02-16T15:20:12.104Z,15.64
2024-02-16T15:22:45.955Z,15.70
2024-02-16T15:25:20.875Z,15.59
2024-02-16T15:27:58.007Z,15.61
2024-02-16T15:30:31.622Z,15.60
2024-02-16T15:32:59.065Z,15.61
2024-02-16T15:35:26.732Z,15.61
2024-02-16T15:37:53.986Z,15.55
2024-02-16T15:40:24.340Z,15.53
2024-02-16T15:43:05.332Z,15.55
2024-02-16T15:45:32.979Z,15.48
2024-02-16T15:48:02.013Z,15.43
2024-02-16T15:50:32.084Z,15.39
2024-02-16T15:53:00.055Z,15.35
2024-02-16T15:55:27.700Z,15.31
2024-02-16T15:57:57.762Z,15.30
2024-02-16T16:00:33.969Z,15.28
2024-02-16T16:03:04.885Z,15.21
2024-02-16T16:05:37.154Z,15.23
2024-02-16T16:08:05.803Z,15.19
2024-02-16T16:10:32.972Z,15.17
2024-02-16T16:13:03.145Z,15.13
2024-02-16T16:15:30.609Z,15.14
2024-02-16T16:17:57.928Z,15.19
2024-02-16T16:20:25.040Z,15.09
2024-02-16T16:22:58.531Z,15.12
2024-02-16T16:25:29.103Z,15.12
2024-02-16T16:27:56.220Z,15.13
2024-02-16T16:30:26.158Z,15.11
2024-02-16T16:32:59.743Z,15.07
2024-02-16T16:35:27.603Z,15.03
2024-02-16T16:38:01.328Z,15.02
2024-02-16T16:40:29.192Z,14.98
2024-02-16T16:42:56.850Z,14.96
2024-02-16T16:45:25.457Z,14.94
2024-02-16T16:47:53.620Z,14.88
2024-02-16T16:50:29.125Z,14.87
2024-02-16T16:52:59.632Z,14.80
2024-02-16T16:55:28.492Z,14.76
2024-02-16T16:57:56.829Z,14.71
2024-02-16T17:00:32.245Z,14.73
2024-02-16T17:03:02.349Z,14.67
2024-02-16T17:05:30.841Z,14.55
2024-02-16T17:07:58.523Z,14.50
2024-02-16T17:10:29.282Z,14.60
2024-02-16T17:12:56.914Z,14.57
2024-02-16T17:15:24.098Z,14.49
2024-02-16T17:17:54.337Z,14.51
2024-02-16T17:20:26.205Z,14.50
2024-02-16T17:22:57.143Z,14.53
2024-02-16T17:25:25.430Z,14.56
2024-02-16T17:27:52.448Z,14.56
2024-02-16T17:30:21.490Z,14.67
2024-02-16T17:32:52.250Z,14.81
2024-02-16T17:35:20.449Z,14.81
2024-02-16T17:37:47.659Z,14.86
2024-02-16T17:40:15.240Z,14.89
2024-02-16T17:42:42.819Z,14.96
2024-02-16T17:45:10.561Z,14.94
2024-02-16T17:47:39.384Z,14.99
2024-02-16T17:50:07.887Z,14.69
2024-02-16T17:52:35.162Z,14.69
2024-02-16T17:55:06.704Z,14.58
2024-02-16T17:57:43.483Z,14.51
2024-02-16T18:00:13.931Z,14.43
2024-02-16T18:02:43.157Z,14.39
2024-02-16T18:05:12.579Z,14.35
2024-02-16T18:07:39.931Z,14.22
2024-02-16T18:10:09.188Z,14.26
2024-02-16T18:12:36.721Z,14.15
2024-02-16T18:15:05.678Z,14.10
2024-02-16T18:17:36.216Z,14.04
2024-02-16T18:20:04.063Z,13.92
2024-02-16T18:22:31.229Z,13.95
2024-02-16T18:24:58.340Z,13.99
2024-02-16T18:27:42.986Z,14.01
2024-02-16T18:30:12.301Z,14.05
2024-02-16T18:32:50.004Z,13.98
2024-02-16T18:35:17.530Z,14.00
2024-02-16T18:37:48.210Z,14.13
2024-02-16T18:40:15.389Z,14.17
2024-02-16T18:42:42.330Z,14.04
2024-02-16T18:45:12.691Z,13.96
2024-02-16T18:47:40.355Z,14.01
2024-02-16T18:50:08.090Z,13.99
2024-02-16T18:52:35.590Z,14.01
2024-02-16T18:55:02.927Z,14.01
2024-02-16T18:57:30.799Z,13.88
2024-02-16T18:59:57.800Z,13.88
2024-02-16T19:02:24.796Z,13.79
2024-02-16T19:04:51.891Z,13.78
2024-02-16T19:07:20.117Z,13.71
2024-02-16T19:09:50.209Z,13.63
2024-02-16T19:12:18.032Z,13.61
2024-02-16T19:14:45.087Z,13.55
2024-02-16T19:17:12.014Z,13.49
2024-02-16T19:19:39.553Z,13.53
2024-02-16T19:22:06.617Z,13.49
2024-02-16T19:24:39.838Z,13.50
2024-02-16T19:27:11.305Z,13.49
2024-02-16T19:29:38.212Z,13.49
2024-02-16T19:32:05.532Z,13.54
2024-02-16T19:34:33.688Z,13.44
2024-02-16T19:37:00.854Z,13.44
2024-02-16T19:39:28.029Z,13.48
2024-02-16T19:41:55.104Z,13.44
2024-02-16T19:44:23.061Z,13.35
2024-02-16T19:46:50.347Z,13.38
2024-02-16T19:49:17.789Z,13.41
2024-02-16T19:51:45.148Z,13.30
2024-02-16T19:54:12.562Z,13.36
2024-02-16T19:56:39.667Z,13.37
2024-02-16T19:59:06.774Z,13.40
2024-02-16T20:01:33.880Z,13.35
2024-02-16T20:04:00.822Z,13.38
2024-02-16T20:06:31.126Z,13.35
2024-02-16T20:08:58.657Z,13.36
2024-02-16T20:11:25.652Z,13.33
2024-02-16T20:13:57.869Z,13.36
2024-02-16T20:16:24.865Z,13.30
2024-02-16T20:18:53.442Z,13.30
2024-02-16T20:21:20.722Z,13.35
2024-02-16T20:23:48.061Z,13.34
2024-02-16T20:26:22.960Z,13.33
2024-02-16T20:28:53.369Z,13.31
2024-02-16T20:31:20.767Z,13.36
2024-02-16T20:33:48.211Z,13.34
2024-02-16T20:36:16.189Z,13.35
2024-02-16T20:38:43.728Z,13.32
2024-02-16T20:41:10.698Z,13.31
2024-02-16T20:43:37.986Z,13.28
2024-02-16T20:46:09.032Z,13.27
2024-02-16T20:48:36.485Z,13.29
2024-02-16T20:51:03.648Z,13.29
2024-02-16T20:53:31.338Z,13.28
2024-02-16T20:55:58.322Z,13.31
2024-02-16T20:58:25.280Z,13.32
2024-02-16T21:00:52.426Z,13.34
2024-02-16T21:03:19.729Z,13.28
2024-02-16T21:05:47.060Z,13.23
2024-02-16T21:08:14.116Z,13.25
2024-02-16T21:10:41.094Z,13.26
2024-02-16T21:13:07.877Z,13.23
2024-02-16T21:15:36.662Z,13.24
2024-02-16T21:18:06.849Z,13.21
2024-02-16T21:20:33.866Z,13.24
2024-02-16T21:23:00.749Z,13.21
2024-02-16T21:25:28.184Z,13.23
2024-02-16T21:27:55.572Z,13.23
2024-02-16T21:30:22.574Z,13.20
2024-02-16T21:32:52.761Z,13.13
2024-02-16T21:35:22.319Z,13.12
2024-02-16T21:37:49.601Z,13.19
2024-02-16T21:40:19.115Z,13.06
2024-02-16T21:42:46.867Z,13.01
2024-02-16T21:45:14.243Z,13.13
2024-02-16T21:47:41.469Z,13.09
2024-02-16T21:50:11.252Z,13.11
2024-02-16T21:52:38.328Z,13.17
2024-02-16T21:55:05.664Z,13.23
2024-02-16T21:57:32.917Z,13.26
2024-02-16T21:59:59.932Z,13.20
2024-02-16T22:02:27.042Z,13.24
2024-02-16T22:04:54.002Z,13.21
2024-02-16T22:07:21.285Z,13.19
2024-02-16T22:09:48.493Z,13.08
2024-02-16T22:12:21.678Z,13.12
2024-02-16T22:14:49.056Z,13.17
2024-02-16T22:17:16.364Z,13.09
2024-02-16T22:19:43.234Z,13.23
2024-02-16T22:22:11.803Z,13.06
2024-02-16T22:24:40.869Z,13.00
2024-02-16T22:27:07.932Z,12.94
2024-02-16T22:29:34.961Z,12.83
2024-02-16T22:32:11.780Z,12.87
2024-02-16T22:34:44.167Z,13.02
2024-02-16T22:37:11.068Z,13.00
2024-02-16T22:39:37.973Z,12.98
2024-02-16T22:42:05.811Z,13.02
2024-02-16T22:44:32.786Z,13.03
2024-02-16T22:47:02.514Z,12.90
2024-02-16T22:49:29.844Z,12.92
2024-02-16T22:51:56.637Z,12.86
2024-02-16T22:54:23.717Z,12.88
2024-02-16T22:56:50.693Z,12.77
2024-02-16T22:59:17.682Z,12.72
2024-02-16T23:01:44.649Z,12.78
2024-02-16T23:04:11.886Z,12.82
2024-02-16T23:06:39.353Z,12.95
2024-02-16T23:09:10.375Z,12.79
2024-02-16T23:11:37.783Z,12.62
2024-02-16T23:14:05.697Z,12.68
2024-02-16T23:16:32.896Z,12.61
2024-02-16T23:18:59.908Z,12.67
2024-02-16T23:21:27.544Z,12.56
2024-02-16T23:23:54.902Z,12.54
2024-02-16T23:26:21.773Z,12.52
2024-02-16T23:28:50.525Z,12.58
2024-02-16T23:31:20.034Z,12.65
2024-02-16T23:33:47.033Z,12.50
2024-02-16T23:36:14.179Z,12.55
2024-02-16T23:38:41.057Z,12.61
2024-02-16T23:41:09.485Z,12.60
2024-02-16T23:43:37.416Z,12.53
2024-02-16T23:46:07.535Z,12.56
2024-02-16T23:48:37.217Z,12.39
2024-02-16T23:51:04.276Z,12.19
2024-02-16T23:53:31.132Z,12.18
2024-02-16T23:55:58.036Z,12.28
2024-02-16T23:58:25.032Z,12.18
